Time;durP1;ratioP1;P1;durP2;ratioP2;P2;SDS_P1;SDS_P2;PMS_P1;PMS_P2;Temp;Humidity;BMP_temperature;BMP_pressure;BME280_temperature;BME280_humidity;BME280_pressure;Samples;Min_cycle;Max_cycle;Signal;HPM_P1;HPM_P2
2023/05/30 00:01:51;;;;;;;;;;;;;;;13.10;52.78;99434.66;4891205;29;19928;-83
2023/05/30 00:04:19;;;;;;;;;;;;;;;13.12;52.61;99429.00;4876292;29;19959;-83
2023/05/30 00:06:47;;;;;;;;;;;;;;;13.14;52.36;99434.97;4872485;29;19928;-84
2023/05/30 00:09:14;;;;;;;;;;;;;;;13.10;52.75;99436.56;4875763;29;19967;-83
2023/05/30 00:11:41;;;;;;;;;;;;;;;13.10;52.95;99431.13;4873671;29;19935;-83
2023/05/30 00:14:08;;;;;;;;;;;;;;;13.10;52.83;99431.13;4854338;29;20023;-83
2023/05/30 00:16:35;;;;;;;;;;;;;;;13.09;52.81;99429.47;4874908;29;19927;-82
2023/05/30 00:19:04;;;;;;;;;;;;;;;13.05;53.00;99431.88;4874792;29;19976;-83
2023/05/30 00:21:31;;;;;;;;;;;;;;;13.01;53.27;99431.56;4876589;29;19943;-82
2023/05/30 00:23:58;;;;;;;;;;;;;;;12.99;53.40;99433.72;4875341;29;19950;-83
2023/05/30 00:26:26;;;;;;;;;;;;;;;12.98;53.31;99431.22;4875388;29;19934;-82
2023/05/30 00:28:53;;;;;;;;;;;;;;;12.98;53.32;99429.34;4891283;29;20026;-83
2023/05/30 00:31:20;;;;;;;;;;;;;;;13.00;53.36;99429.91;4874750;29;20408;-82
2023/05/30 00:33:48;;;;;;;;;;;;;;;13.04;53.60;99424.00;4876222;29;19944;-86
2023/05/30 00:36:16;;;;;;;;;;;;;;;13.05;53.53;99422.94;4878312;29;20218;-85
2023/05/30 00:38:43;;;;;;;;;;;;;;;13.02;53.87;99430.50;4876311;29;19931;-83
2023/05/30 00:41:10;;;;;;;;;;;;;;;13.01;53.96;99428.03;4874683;29;19952;-83
2023/05/30 00:43:37;;;;;;;;;;;;;;;13.04;53.75;99427.53;4876199;29;19927;-85
2023/05/30 00:46:04;;;;;;;;;;;;;;;13.05;53.48;99428.34;4876169;29;20018;-85
2023/05/30 00:48:31;;;;;;;;;;;;;;;13.02;53.82;99429.69;4874942;29;19932;-85
2023/05/30 00:50:59;;;;;;;;;;;;;;;13.00;53.68;99424.50;4874691;29;19927;-84
2023/05/30 00:53:26;;;;;;;;;;;;;;;13.00;53.38;99426.41;4874828;29;19992;-85
2023/05/30 00:55:53;;;;;;;;;;;;;;;13.01;53.29;99415.31;4875118;29;19927;-84
2023/05/30 00:58:21;;;;;;;;;;;;;;;12.97;53.82;99414.16;4875114;29;20310;-86
2023/05/30 01:00:49;;;;;;;;;;;;;;;12.95;54.13;99426.31;4875212;29;20305;-85
2023/05/30 01:03:22;;;;;;;;;;;;;;;12.98;53.57;99426.63;4874592;29;19928;-84
2023/05/30 01:05:49;;;;;;;;;;;;;;;13.06;53.27;99424.56;4875513;29;19928;-83
2023/05/30 01:08:19;;;;;;;;;;;;;;;13.05;53.25;99425.66;4876975;29;19927;-84
2023/05/30 01:10:47;;;;;;;;;;;;;;;13.06;53.65;99425.38;4877305;29;19927;-85
2023/05/30 01:13:20;;;;;;;;;;;;;;;13.05;54.00;99417.53;4876024;29;19934;-84
2023/05/30 01:15:58;;;;;;;;;;;;;;;13.09;53.84;99418.63;4860530;29;19927;-84
2023/05/30 01:18:25;;;;;;;;;;;;;;;13.08;53.88;99417.00;4891236;29;19927;-84
2023/05/30 01:20:59;;;;;;;;;;;;;;;13.07;53.88;99413.50;4876301;29;19927;-85
2023/05/30 01:23:41;;;;;;;;;;;;;;;13.12;53.85;99420.88;4875835;29;19959;-84
2023/05/30 01:26:27;;;;;;;;;;;;;;;13.17;53.57;99421.75;4876095;29;19967;-82
2023/05/30 01:28:55;;;;;;;;;;;;;;;13.16;53.88;99416.56;4876580;29;19927;-83
2023/05/30 01:31:24;;;;;;;;;;;;;;;13.11;54.35;99425.44;4891550;29;19927;-82
2023/05/30 01:33:52;;;;;;;;;;;;;;;13.04;54.72;99424.84;4877681;29;19932;-82
2023/05/30 01:36:20;;;;;;;;;;;;;;;12.92;55.17;99416.81;4875751;29;19927;-83
2023/05/30 01:38:47;;;;;;;;;;;;;;;12.85;55.25;99412.63;4876959;29;19928;-83
2023/05/30 01:41:19;;;;;;;;;;;;;;;12.90;55.26;99418.13;4877746;29;19928;-84
2023/05/30 01:44:01;;;;;;;;;;;;;;;12.89;55.53;99419.22;4878432;29;19932;-84
2023/05/30 01:46:30;;;;;;;;;;;;;;;12.86;55.78;99406.94;4878111;29;19934;-85
2023/05/30 01:49:17;;;;;;;;;;;;;;;12.85;55.96;99416.16;4878689;29;19927;-84
2023/05/30 01:51:44;;;;;;;;;;;;;;;12.85;56.02;99413.44;4882208;29;19932;-85
2023/05/30 01:54:13;;;;;;;;;;;;;;;12.91;55.84;99411.63;4880213;29;19935;-84
2023/05/30 01:56:40;;;;;;;;;;;;;;;12.97;55.30;99411.47;4879916;29;20018;-84
2023/05/30 01:59:08;;;;;;;;;;;;;;;13.09;53.84;99415.94;4882070;29;19952;-85
2023/05/30 02:01:35;;;;;;;;;;;;;;;13.13;54.49;99417.06;4868388;29;19928;-84
2023/05/30 02:04:04;;;;;;;;;;;;;;;13.11;54.60;99402.94;4881611;29;19935;-84
2023/05/30 02:06:31;;;;;;;;;;;;;;;13.10;54.32;99415.69;4865619;29;19943;-84
2023/05/30 02:08:58;;;;;;;;;;;;;;;13.18;54.53;99407.13;4875869;29;19934;-85
2023/05/30 02:11:25;;;;;;;;;;;;;;;13.23;54.08;99417.22;4861771;29;20000;-84
2023/05/30 02:13:53;;;;;;;;;;;;;;;13.27;54.44;99412.13;4875938;29;19959;-84
2023/05/30 02:16:20;;;;;;;;;;;;;;;13.30;55.25;99417.06;4875783;29;19928;-84
2023/05/30 02:18:48;;;;;;;;;;;;;;;13.24;55.63;99418.84;4878952;29;20349;-84
2023/05/30 02:21:15;;;;;;;;;;;;;;;13.15;56.02;99417.66;4882013;29;19932;-85
2023/05/30 02:23:42;;;;;;;;;;;;;;;13.11;56.28;99419.22;4865063;29;19935;-85
2023/05/30 02:26:09;;;;;;;;;;;;;;;13.16;56.48;99416.56;4881015;29;19928;-86
2023/05/30 02:28:36;;;;;;;;;;;;;;;13.22;56.44;99410.97;4885128;29;19932;-84
2023/05/30 02:31:03;;;;;;;;;;;;;;;13.30;56.43;99412.44;4883570;29;19975;-84
2023/05/30 02:33:30;;;;;;;;;;;;;;;13.33;56.62;99417.38;4879258;29;20338;-85
2023/05/30 02:35:57;;;;;;;;;;;;;;;13.39;56.77;99416.38;4879147;29;19963;-85
2023/05/30 02:38:24;;;;;;;;;;;;;;;13.47;56.47;99423.25;4894859;29;19927;-85
2023/05/30 02:40:51;;;;;;;;;;;;;;;13.56;56.39;99423.59;4878900;29;20406;-84
2023/05/30 02:43:19;;;;;;;;;;;;;;;13.63;56.22;99416.91;4878512;29;20398;-87
2023/05/30 02:45:48;;;;;;;;;;;;;;;13.70;55.85;99421.28;4878507;29;19928;-85
2023/05/30 02:48:18;;;;;;;;;;;;;;;13.75;55.77;99419.47;4878103;29;19932;-85
2023/05/30 02:50:44;;;;;;;;;;;;;;;13.76;55.75;99423.81;4879714;29;20314;-84
2023/05/30 02:53:16;;;;;;;;;;;;;;;13.80;55.59;99422.25;4879156;29;19932;-84
2023/05/30 02:55:45;;;;;;;;;;;;;;;13.84;55.50;99425.25;4878296;29;19937;-84
2023/05/30 02:58:40;;;;;;;;;;;;;;;13.85;55.30;99411.44;4878233;29;20022;-84
2023/05/30 03:01:28;;;;;;;;;;;;;;;13.87;54.72;99422.03;4879276;29;19941;-86
2023/05/30 03:03:55;;;;;;;;;;;;;;;13.88;54.89;99413.63;4875179;29;20034;-85
2023/05/30 03:06:31;;;;;;;;;;;;;;;13.93;54.90;99412.88;4860786;29;19928;-86
2023/05/30 03:09:16;;;;;;;;;;;;;;;13.96;54.16;99409.66;4858919;29;19934;-85
2023/05/30 03:11:46;;;;;;;;;;;;;;;14.00;54.60;99412.66;4859082;29;19928;-85
2023/05/30 03:14:13;;;;;;;;;;;;;;;14.08;54.99;99412.22;4859457;29;19951;-83
2023/05/30 03:16:42;;;;;;;;;;;;;;;14.11;54.50;99406.25;4893259;29;19950;-84
2023/05/30 03:19:11;;;;;;;;;;;;;;;14.09;54.44;99408.41;4862091;29;19928;-85
2023/05/30 03:21:40;;;;;;;;;;;;;;;14.23;53.79;99408.78;4878112;29;19935;-83
2023/05/30 03:24:12;;;;;;;;;;;;;;;14.47;52.47;99417.41;4877097;29;20374;-84
2023/05/30 03:26:44;;;;;;;;;;;;;;;14.60;51.41;99411.56;4877544;29;19931;-85
2023/05/30 03:29:13;;;;;;;;;;;;;;;14.59;51.07;99417.25;4877132;29;20306;-85
2023/05/30 03:31:40;;;;;;;;;;;;;;;14.71;50.03;99423.31;4877266;29;20030;-83
2023/05/30 03:34:09;;;;;;;;;;;;;;;14.88;49.16;99420.44;4875318;29;19928;-83
2023/05/30 03:36:37;;;;;;;;;;;;;;;14.88;47.89;99428.59;4876201;29;20022;-83
2023/05/30 03:39:08;;;;;;;;;;;;;;;14.82;48.32;99426.94;4875967;29;19928;-83
2023/05/30 03:41:35;;;;;;;;;;;;;;;14.72;49.17;99423.06;4872589;29;19934;-84
2023/05/30 03:44:02;;;;;;;;;;;;;;;14.64;49.53;99423.53;4875053;29;19983;-85
2023/05/30 03:46:31;;;;;;;;;;;;;;;14.64;49.40;99431.69;4890025;29;20478;-84
2023/05/30 03:49:01;;;;;;;;;;;;;;;14.69;49.44;99423.56;4877184;29;19928;-83
2023/05/30 03:51:28;;;;;;;;;;;;;;;14.68;49.82;99426.53;4860292;29;19950;-82
2023/05/30 03:53:55;;;;;;;;;;;;;;;14.70;48.72;99433.34;4875604;29;19927;-84
2023/05/30 03:56:22;;;;;;;;;;;;;;;14.89;48.03;99422.09;4877073;29;20477;-83
2023/05/30 03:58:51;;;;;;;;;;;;;;;15.02;48.00;99421.59;4875185;29;19932;-84
2023/05/30 04:01:37;;;;;;;;;;;;;;;15.15;48.33;99425.75;4870102;29;19932;-86
2023/05/30 04:04:04;;;;;;;;;;;;;;;15.17;49.04;99429.84;4875452;29;19939;-85
2023/05/30 04:06:42;;;;;;;;;;;;;;;15.15;48.90;99423.84;4876784;29;19928;-85
2023/05/30 04:09:09;;;;;;;;;;;;;;;15.17;48.25;99426.31;4877022;29;19983;-84
2023/05/30 04:11:36;;;;;;;;;;;;;;;15.28;46.91;99427.16;4875951;29;20544;-85
2023/05/30 04:14:03;;;;;;;;;;;;;;;15.45;45.82;99429.69;4876198;29;19935;-85
2023/05/30 04:16:30;;;;;;;;;;;;;;;15.59;45.55;99428.91;4877897;29;19928;-81
2023/05/30 04:18:58;;;;;;;;;;;;;;;15.81;45.41;99434.19;4881043;29;19999;-85
2023/05/30 04:21:27;;;;;;;;;;;;;;;16.04;44.79;99427.41;4876812;29;19934;-82
2023/05/30 04:23:55;;;;;;;;;;;;;;;16.24;43.77;99420.38;4873601;29;19950;-86
2023/05/30 04:26:22;;;;;;;;;;;;;;;16.51;43.33;99420.09;4874876;29;19928;-86
2023/05/30 04:28:50;;;;;;;;;;;;;;;16.84;43.19;99417.91;4873248;29;19934;-86
2023/05/30 04:31:32;;;;;;;;;;;;;;;16.97;42.85;99421.97;4873913;29;20678;-87
2023/05/30 04:33:59;;;;;;;;;;;;;;;17.07;42.96;99432.84;4873679;29;19935;-86
2023/05/30 04:36:32;;;;;;;;;;;;;;;17.15;43.33;99426.81;4902567;23;19928;-85
2023/05/30 04:39:02;;;;;;;;;;;;;;;17.22;43.34;99427.34;4534228;29;10002122;-86
2023/05/30 04:41:30;;;;;;;;;;;;;;;17.38;43.14;99417.19;4856352;29;20598;-85
2023/05/30 04:44:00;;;;;;;;;;;;;;;17.73;42.70;99412.66;4864907;29;19931;-85
2023/05/30 04:46:27;;;;;;;;;;;;;;;18.14;41.04;99409.69;4859430;29;20504;-84
2023/05/30 04:49:00;;;;;;;;;;;;;;;18.31;40.59;99407.38;4861329;29;19928;-87
2023/05/30 04:51:32;;;;;;;;;;;;;;;18.29;40.44;99406.84;4877854;29;19928;-85
2023/05/30 04:54:00;;;;;;;;;;;;;;;18.27;40.04;99405.50;4866661;29;19931;-91
2023/05/30 04:56:27;;;;;;;;;;;;;;;18.26;39.84;99401.16;4874687;29;19996;-83
2023/05/30 04:58:54;;;;;;;;;;;;;;;18.21;39.34;99409.38;4858072;29;20307;-85
2023/05/30 05:01:23;;;;;;;;;;;;;;;18.18;38.99;99413.50;4869732;29;19935;-85
2023/05/30 05:03:51;;;;;;;;;;;;;;;18.22;38.37;99409.06;4873176;29;19932;-86
2023/05/30 05:06:18;;;;;;;;;;;;;;;18.34;38.37;99414.19;4862144;29;19960;-85
2023/05/30 05:08:45;;;;;;;;;;;;;;;18.26;38.52;99407.41;4862018;29;19928;-86
2023/05/30 05:11:13;;;;;;;;;;;;;;;18.21;38.81;99410.19;4858396;29;19927;-86
2023/05/30 05:13:40;;;;;;;;;;;;;;;18.28;38.75;99402.50;4858639;29;19976;-86
2023/05/30 05:16:07;;;;;;;;;;;;;;;18.41;37.88;99403.75;4867383;29;19935;-86
2023/05/30 05:18:34;;;;;;;;;;;;;;;18.44;36.56;99402.34;4842412;29;20024;-84
2023/05/30 05:21:01;;;;;;;;;;;;;;;18.40;36.50;99404.81;4869356;29;19928;-86
2023/05/30 05:23:29;;;;;;;;;;;;;;;18.49;37.22;99407.78;4877277;29;20717;-86
2023/05/30 05:26:00;;;;;;;;;;;;;;;18.53;37.47;99414.28;4875707;29;20003;-84
2023/05/30 05:28:34;;;;;;;;;;;;;;;18.46;37.28;99414.63;4862682;29;20383;-85
2023/05/30 05:31:01;;;;;;;;;;;;;;;18.40;37.40;99418.50;4853060;29;19927;-86
2023/05/30 05:33:28;;;;;;;;;;;;;;;18.25;38.04;99413.16;4849253;29;20356;-87
2023/05/30 05:35:55;;;;;;;;;;;;;;;18.16;38.51;99416.50;4861990;29;19996;-86
2023/05/30 05:38:22;;;;;;;;;;;;;;;18.15;38.57;99411.31;4860881;29;19927;-85
2023/05/30 05:40:49;;;;;;;;;;;;;;;18.22;38.40;99405.53;4858966;29;19932;-84
2023/05/30 05:43:16;;;;;;;;;;;;;;;18.30;38.10;99404.91;4849308;29;19950;-86
2023/05/30 05:45:43;;;;;;;;;;;;;;;18.28;38.41;99393.44;4852635;29;19927;-85
2023/05/30 05:48:10;;;;;;;;;;;;;;;18.12;38.79;99403.69;4862081;29;20319;-86
2023/05/30 05:50:37;;;;;;;;;;;;;;;18.06;38.19;99402.91;4860648;29;19974;-82
2023/05/30 05:53:04;;;;;;;;;;;;;;;18.27;37.26;99397.28;4861278;29;20022;-85
2023/05/30 05:55:31;;;;;;;;;;;;;;;18.33;36.40;99399.72;4845995;29;19983;-85
2023/05/30 05:57:58;;;;;;;;;;;;;;;18.26;36.82;99398.41;4857968;29;19963;-86
2023/05/30 06:00:25;;;;;;;;;;;;;;;18.31;36.89;99393.72;4860473;29;20395;-83
2023/05/30 06:02:52;;;;;;;;;;;;;;;18.44;37.01;99400.44;4865633;29;19928;-85
2023/05/30 06:05:19;;;;;;;;;;;;;;;18.51;37.58;99406.38;4859928;29;19932;-86
2023/05/30 06:07:48;;;;;;;;;;;;;;;18.52;36.59;99397.06;4853958;29;19978;-84
2023/05/30 06:10:18;;;;;;;;;;;;;;;18.27;35.54;99408.22;4862956;29;19928;-85
2023/05/30 06:12:46;;;;;;;;;;;;;;;18.10;34.62;99398.50;4866870;29;19951;-85
2023/05/30 06:15:13;;;;;;;;;;;;;;;18.19;34.95;99401.47;4852555;29;19928;-86
2023/05/30 06:17:40;;;;;;;;;;;;;;;18.39;35.43;99393.09;4866566;29;19979;-86
2023/05/30 06:20:08;;;;;;;;;;;;;;;18.59;34.96;99391.28;4860476;29;19928;-83
2023/05/30 06:22:35;;;;;;;;;;;;;;;18.61;34.59;99392.63;4847851;29;19932;-84
2023/05/30 06:25:04;;;;;;;;;;;;;;;18.66;31.36;99386.31;4853351;29;19936;-87
2023/05/30 06:27:31;;;;;;;;;;;;;;;18.83;31.91;99377.66;4839580;29;19928;-86
2023/05/30 06:30:00;;;;;;;;;;;;;;;18.98;31.84;99388.44;4508770;29;10000503;-85
2023/05/30 06:32:29;;;;;;;;;;;;;;;18.92;32.03;99377.84;4849793;29;19928;-86
2023/05/30 06:34:56;;;;;;;;;;;;;;;18.88;31.91;99365.84;4840229;29;20314;-85
2023/05/30 06:37:23;;;;;;;;;;;;;;;19.02;31.32;99380.47;4845555;29;19971;-84
2023/05/30 06:39:50;;;;;;;;;;;;;;;19.19;30.49;99371.78;4839226;29;19980;-86
2023/05/30 06:42:20;;;;;;;;;;;;;;;19.39;30.07;99366.03;4839860;29;20007;-88
2023/05/30 06:44:47;;;;;;;;;;;;;;;19.45;30.02;99381.31;4846746;29;19929;-86
2023/05/30 06:47:14;;;;;;;;;;;;;;;19.64;30.22;99375.03;4844413;29;19976;-89
2023/05/30 06:49:42;;;;;;;;;;;;;;;19.70;29.76;99379.38;4841666;29;20583;-86
2023/05/30 06:52:09;;;;;;;;;;;;;;;19.79;29.59;99379.50;4852653;29;20438;-88
2023/05/30 06:54:36;;;;;;;;;;;;;;;19.94;30.03;99375.72;4855764;29;19931;-88
2023/05/30 06:57:06;;;;;;;;;;;;;;;19.97;30.23;99369.63;4854582;29;19928;-85
2023/05/30 06:59:34;;;;;;;;;;;;;;;19.98;28.80;99377.56;4844715;29;19935;-85
2023/05/30 07:02:02;;;;;;;;;;;;;;;19.78;29.60;99366.94;4851109;29;19963;-81
2023/05/30 07:04:29;;;;;;;;;;;;;;;19.84;29.96;99372.00;4864092;29;19931;-85
2023/05/30 07:06:56;;;;;;;;;;;;;;;19.96;31.05;99376.25;4848997;29;19935;-83
2023/05/30 07:09:23;;;;;;;;;;;;;;;20.25;30.52;99368.63;4838555;29;19944;-85
2023/05/30 07:11:51;;;;;;;;;;;;;;;20.20;29.60;99360.50;4852561;29;19955;-84
2023/05/30 07:14:21;;;;;;;;;;;;;;;20.23;29.93;99362.66;4847233;29;19938;-84
2023/05/30 07:16:48;;;;;;;;;;;;;;;20.17;29.11;99363.84;4846794;29;19927;-84
2023/05/30 07:19:15;;;;;;;;;;;;;;;20.36;29.16;99361.06;4847799;29;20356;-84
2023/05/30 07:22:01;;;;;;;;;;;;;;;20.67;29.50;99349.56;4846854;29;20356;-83
2023/05/30 07:24:31;;;;;;;;;;;;;;;20.76;29.08;99350.47;4835890;29;20030;-86
2023/05/30 07:26:58;;;;;;;;;;;;;;;20.68;28.63;99341.03;4815836;29;19928;-86
2023/05/30 07:29:26;;;;;;;;;;;;;;;20.37;28.68;99345.44;4844993;29;19928;-84
2023/05/30 07:31:53;;;;;;;;;;;;;;;20.44;28.48;99345.84;4857669;29;19928;-86
2023/05/30 07:34:21;;;;;;;;;;;;;;;20.58;28.17;99354.94;4850633;29;19928;-86
2023/05/30 07:36:48;;;;;;;;;;;;;;;20.77;27.86;99347.44;4852535;29;19953;-83
2023/05/30 07:39:15;;;;;;;;;;;;;;;21.03;27.82;99344.19;4850893;29;19957;-84
2023/05/30 07:41:42;;;;;;;;;;;;;;;21.37;28.12;99340.19;4855096;29;19928;-85
2023/05/30 07:44:12;;;;;;;;;;;;;;;21.81;28.40;99328.50;4847586;29;19977;-86
2023/05/30 07:46:41;;;;;;;;;;;;;;;22.07;28.13;99325.94;4842977;29;19928;-86
2023/05/30 07:49:09;;;;;;;;;;;;;;;22.20;26.92;99334.47;4859323;29;19950;-85
2023/05/30 07:51:36;;;;;;;;;;;;;;;21.82;26.29;99334.81;4858737;29;20387;-85
2023/05/30 07:54:03;;;;;;;;;;;;;;;21.91;26.67;99337.63;4860139;29;20406;-85
2023/05/30 07:56:29;;;;;;;;;;;;;;;21.64;26.05;99323.66;4857878;29;19928;-86
2023/05/30 07:58:59;;;;;;;;;;;;;;;21.38;26.78;99320.69;4859224;29;19928;-84
2023/05/30 08:01:27;;;;;;;;;;;;;;;21.76;27.00;99314.09;4859265;29;19959;-86
2023/05/30 08:03:54;;;;;;;;;;;;;;;22.33;26.93;99314.31;4847330;29;19929;-86
2023/05/30 08:06:21;;;;;;;;;;;;;;;22.91;26.40;99316.06;4841111;29;19928;-85
2023/05/30 08:08:48;;;;;;;;;;;;;;;23.10;25.63;99320.50;4841063;29;19928;-86
2023/05/30 08:11:15;;;;;;;;;;;;;;;23.17;25.66;99307.09;4840967;29;19932;-86
2023/05/30 08:13:43;;;;;;;;;;;;;;;23.27;25.30;99308.69;4847145;29;19928;-87
2023/05/30 08:16:14;;;;;;;;;;;;;;;23.31;25.32;99305.00;4859214;29;19928;-87
2023/05/30 08:18:42;;;;;;;;;;;;;;;23.43;25.05;99306.31;4850134;29;19955;-86
2023/05/30 08:21:09;;;;;;;;;;;;;;;23.74;25.11;99307.00;4850420;29;19961;-85
2023/05/30 08:23:39;;;;;;;;;;;;;;;23.59;24.51;99301.94;4844836;29;19928;-85
2023/05/30 08:26:08;;;;;;;;;;;;;;;22.75;25.48;99314.06;4845699;29;20407;-82
2023/05/30 08:28:35;;;;;;;;;;;;;;;22.47;25.70;99314.25;4856689;29;19928;-82
2023/05/30 08:31:03;;;;;;;;;;;;;;;22.72;25.24;99299.00;4857573;29;20394;-87
2023/05/30 08:33:32;;;;;;;;;;;;;;;23.37;25.09;99297.41;4861146;29;19942;-87
2023/05/30 08:36:00;;;;;;;;;;;;;;;24.18;24.52;99293.97;4862950;29;19928;-87
2023/05/30 08:38:31;;;;;;;;;;;;;;;24.86;24.22;99302.38;4843713;29;19950;-86
2023/05/30 08:40:59;;;;;;;;;;;;;;;25.26;23.33;99290.94;4859434;29;19983;-87
2023/05/30 08:43:37;;;;;;;;;;;;;;;25.50;22.93;99297.75;4859357;29;19935;-87
2023/05/30 08:46:04;;;;;;;;;;;;;;;25.77;22.94;99279.00;4842369;29;20375;-87
2023/05/30 08:48:41;;;;;;;;;;;;;;;25.64;23.04;99283.66;4858440;29;19928;-86
2023/05/30 08:51:12;;;;;;;;;;;;;;;25.71;23.32;99279.19;4857391;29;19932;-86
2023/05/30 08:53:54;;;;;;;;;;;;;;;26.01;22.75;99281.09;4858831;29;19935;-87
2023/05/30 08:56:54;;;;;;;;;;;;;;;25.66;22.90;99275.84;4842140;29;20039;-85
2023/05/30 08:59:43;;;;;;;;;;;;;;;26.15;22.84;99276.03;4819892;29;19929;-86
2023/05/30 09:02:27;;;;;;;;;;;;;;;27.18;21.68;99266.81;4820291;29;19971;-85
2023/05/30 09:04:57;;;;;;;;;;;;;;;27.95;20.99;99277.75;4787260;29;20058;-87
2023/05/30 09:07:27;;;;;;;;;;;;;;;28.51;20.51;99263.84;4801879;29;19929;-86
2023/05/30 09:09:54;;;;;;;;;;;;;;;28.25;20.53;99269.06;4790306;29;19936;-86
2023/05/30 09:12:22;;;;;;;;;;;;;;;27.49;20.94;99271.69;4790276;29;19929;-86
2023/05/30 09:14:49;;;;;;;;;;;;;;;26.35;21.77;99277.91;4805406;29;19929;-87
2023/05/30 09:17:16;;;;;;;;;;;;;;;24.50;23.09;99268.91;4790868;29;19936;-86
2023/05/30 09:19:43;;;;;;;;;;;;;;;23.49;24.03;99264.50;4775939;29;19936;-87
2023/05/30 09:22:14;;;;;;;;;;;;;;;23.17;24.62;99268.56;4795499;29;20035;-87
2023/05/30 09:24:56;;;;;;;;;;;;;;;22.93;25.00;99261.50;4823789;29;20028;-86
2023/05/30 09:27:24;;;;;;;;;;;;;;;22.72;25.32;99257.72;4824117;29;20168;-85
2023/05/30 09:29:51;;;;;;;;;;;;;;;22.66;25.31;99258.97;4793308;29;19967;-87
2023/05/30 09:32:22;;;;;;;;;;;;;;;22.83;25.06;99259.03;4823772;29;19929;-87
2023/05/30 09:34:53;;;;;;;;;;;;;;;23.24;25.09;99248.78;4815964;29;19935;-87
2023/05/30 09:37:20;;;;;;;;;;;;;;;25.33;22.73;99251.72;4825834;29;20349;-86
2023/05/30 09:40:12;;;;;;;;;;;;;;;25.65;22.19;99232.75;4841750;29;19928;-86
2023/05/30 09:42:42;;;;;;;;;;;;;;;25.65;22.24;99238.28;4841886;29;19932;-86
2023/05/30 09:45:10;;;;;;;;;;;;;;;25.05;22.42;99226.56;4842636;29;19935;-86
2023/05/30 09:47:38;;;;;;;;;;;;;;;24.22;23.86;99227.94;4826847;29;20452;-86
2023/05/30 09:50:06;;;;;;;;;;;;;;;23.58;24.60;99232.25;4856849;29;19928;-87
2023/05/30 09:52:33;;;;;;;;;;;;;;;23.28;24.78;99225.78;4861514;29;19953;-88
2023/05/30 09:55:01;;;;;;;;;;;;;;;23.05;25.12;99225.13;4861124;29;19931;-86
2023/05/30 09:57:31;;;;;;;;;;;;;;;23.02;25.16;99223.03;4862330;29;19967;-87
2023/05/30 09:59:58;;;;;;;;;;;;;;;22.87;25.30;99221.50;4866938;29;19928;-87
2023/05/30 10:02:25;;;;;;;;;;;;;;;22.51;25.58;99224.50;4863012;29;19927;-87
2023/05/30 10:04:54;;;;;;;;;;;;;;;22.21;26.23;99228.91;4828221;29;19932;-86
2023/05/30 10:07:21;;;;;;;;;;;;;;;22.02;26.01;99224.41;4844015;29;19939;-87
2023/05/30 10:09:51;;;;;;;;;;;;;;;22.50;26.02;99218.16;4843630;29;19928;-86
2023/05/30 10:12:18;;;;;;;;;;;;;;;23.00;25.73;99213.47;4857411;29;20426;-85
2023/05/30 10:14:46;;;;;;;;;;;;;;;23.64;25.40;99213.63;4842024;29;20006;-86
2023/05/30 10:17:16;;;;;;;;;;;;;;;24.31;24.64;99209.44;4841851;29;19952;-87
2023/05/30 10:19:50;;;;;;;;;;;;;;;25.96;22.86;99212.19;4856386;29;20391;-87
2023/05/30 10:22:17;;;;;;;;;;;;;;;27.20;21.61;99204.34;4830909;29;19928;-87
2023/05/30 10:24:46;;;;;;;;;;;;;;;28.27;20.54;99211.25;4860913;29;19932;-86
2023/05/30 10:27:15;;;;;;;;;;;;;;;29.68;19.58;99204.94;4860177;29;19934;-88
2023/05/30 10:30:03;;;;;;;;;;;;;;;29.59;19.06;99205.13;4860835;29;20039;-87
2023/05/30 10:32:31;;;;;;;;;;;;;;;28.52;19.76;99203.56;4858219;29;19932;-87
2023/05/30 10:35:06;;;;;;;;;;;;;;;28.29;20.28;99206.94;4845070;29;20391;-88
2023/05/30 10:37:33;;;;;;;;;;;;;;;28.77;19.95;99203.34;4860723;29;19928;-87
2023/05/30 10:40:21;;;;;;;;;;;;;;;28.93;19.39;99201.31;4845368;29;20001;-88
2023/05/30 10:42:48;;;;;;;;;;;;;;;28.15;20.33;99203.78;4862562;29;19928;-87
2023/05/30 10:45:20;;;;;;;;;;;;;;;28.81;19.87;99193.91;4846700;29;19928;-87
2023/05/30 10:48:13;;;;;;;;;;;;;;;29.71;19.28;99185.53;4848294;29;19928;-88
2023/05/30 10:50:41;;;;;;;;;;;;;;;30.68;18.52;99185.19;4865538;29;19955;-82
2023/05/30 10:53:20;;;;;;;;;;;;;;;29.73;18.88;99180.41;4860693;29;19928;-83
2023/05/30 10:55:51;;;;;;;;;;;;;;;28.72;19.17;99185.78;4842477;29;19932;-85
2023/05/30 10:58:37;;;;;;;;;;;;;;;28.37;19.76;99177.41;4841558;29;19928;-83
2023/05/30 11:01:26;;;;;;;;;;;;;;;29.27;19.35;99162.78;4851990;29;19984;-84
2023/05/30 11:03:55;;;;;;;;;;;;;;;30.57;18.49;99161.97;4854982;29;19959;-85
2023/05/30 11:06:25;;;;;;;;;;;;;;;30.97;18.35;99154.16;4852394;29;19955;-84
2023/05/30 11:08:53;;;;;;;;;;;;;;;30.67;18.29;99141.81;4859687;29;19928;-85
2023/05/30 11:11:21;;;;;;;;;;;;;;;30.46;18.69;99144.28;4826848;29;19933;-83
2023/05/30 11:13:48;;;;;;;;;;;;;;;30.60;18.52;99161.19;4848862;29;19996;-83
2023/05/30 11:16:23;;;;;;;;;;;;;;;31.41;18.31;99159.94;4857640;29;20379;-85
2023/05/30 11:18:55;;;;;;;;;;;;;;;31.51;17.80;99153.66;4858017;29;20022;-83
2023/05/30 11:21:44;;;;;;;;;;;;;;;29.59;18.39;99158.66;4852090;29;19928;-83
2023/05/30 11:24:20;;;;;;;;;;;;;;;29.07;19.02;99153.66;4855541;29;20367;-84
2023/05/30 11:26:58;;;;;;;;;;;;;;;29.08;19.02;99146.91;4828512;29;19934;-84
2023/05/30 11:29:31;;;;;;;;;;;;;;;29.08;19.70;99149.69;4863968;29;20367;-83
2023/05/30 11:31:58;;;;;;;;;;;;;;;30.42;18.78;99138.66;4848421;29;19956;-84
2023/05/30 11:34:29;;;;;;;;;;;;;;;31.85;17.26;99148.03;4858815;29;20367;-84
2023/05/30 11:36:56;;;;;;;;;;;;;;;32.33;16.68;99136.09;4841808;29;20479;-85
2023/05/30 11:39:23;;;;;;;;;;;;;;;32.47;17.26;99129.81;4842409;29;20295;-84
2023/05/30 11:41:54;;;;;;;;;;;;;;;33.24;17.07;99142.63;4848786;29;20368;-84
2023/05/30 11:44:21;;;;;;;;;;;;;;;33.83;16.23;99117.25;4857041;29;19949;-84
2023/05/30 11:47:06;;;;;;;;;;;;;;;33.47;16.61;99121.94;4842128;29;19992;-84
2023/05/30 11:49:55;;;;;;;;;;;;;;;33.42;16.60;99123.13;4847563;29;19936;-84
2023/05/30 11:52:22;;;;;;;;;;;;;;;33.59;16.16;99127.19;4852745;29;20399;-84
2023/05/30 11:54:49;;;;;;;;;;;;;;;34.04;15.85;99126.84;4852300;29;19928;-85
2023/05/30 11:57:19;;;;;;;;;;;;;;;34.00;15.53;99129.63;4846897;29;19978;-83
2023/05/30 11:59:48;;;;;;;;;;;;;;;33.71;15.58;99116.81;4834589;29;19928;-86
2023/05/30 12:02:15;;;;;;;;;;;;;;;33.77;15.46;99118.03;4826549;29;19977;-85
2023/05/30 12:04:45;;;;;;;;;;;;;;;33.35;14.87;99123.13;4854571;29;19932;-88
2023/05/30 12:07:13;;;;;;;;;;;;;;;31.99;15.79;99119.50;4852537;29;19928;-85
2023/05/30 12:10:06;;;;;;;;;;;;;;;31.16;16.62;99111.41;4851563;29;19936;-85
2023/05/30 12:12:33;;;;;;;;;;;;;;;31.21;16.63;99111.09;4857187;29;20018;-86
2023/05/30 12:15:01;;;;;;;;;;;;;;;31.62;16.72;99114.72;4855237;29;20521;-91
2023/05/30 12:17:38;;;;;;;;;;;;;;;32.68;15.91;99116.00;4870458;29;19936;-90
2023/05/30 12:20:09;;;;;;;;;;;;;;;34.37;14.88;99108.03;4846457;29;19928;-88
2023/05/30 12:22:44;;;;;;;;;;;;;;;34.65;15.09;99096.00;4849101;29;19959;-86
2023/05/30 12:25:13;;;;;;;;;;;;;;;35.46;14.95;99091.22;4840317;29;19928;-86
2023/05/30 12:27:44;;;;;;;;;;;;;;;34.57;15.05;99097.19;4851409;29;19935;-87
2023/05/30 12:30:14;;;;;;;;;;;;;;;30.07;17.26;99087.97;4827944;29;19935;-87
2023/05/30 12:33:15;;;;;;;;;;;;;;;30.47;17.39;99098.56;4851287;29;19932;-87
2023/05/30 12:35:42;;;;;;;;;;;;;;;32.24;16.45;99090.97;4860189;29;19938;-86
2023/05/30 12:38:11;;;;;;;;;;;;;;;33.70;15.57;99078.84;4859448;29;20444;-86
2023/05/30 12:40:51;;;;;;;;;;;;;;;34.42;15.13;99074.03;4857122;29;19939;-86
2023/05/30 12:43:25;;;;;;;;;;;;;;;34.04;15.18;99091.25;4831230;29;19935;-88
2023/05/30 12:46:04;;;;;;;;;;;;;;;32.99;15.41;99083.84;4839620;29;19928;-88
2023/05/30 12:48:34;;;;;;;;;;;;;;;30.88;17.06;99076.47;4824923;29;19928;-87
2023/05/30 12:51:03;;;;;;;;;;;;;;;31.80;16.53;99075.03;4839564;29;20388;-88
2023/05/30 12:53:37;;;;;;;;;;;;;;;31.52;16.54;99082.78;4821577;29;19928;-89
2023/05/30 12:56:04;;;;;;;;;;;;;;;29.91;17.43;99088.94;4839480;29;19955;-86
2023/05/30 12:58:32;;;;;;;;;;;;;;;30.06;17.54;99075.25;4840413;29;19935;-87
2023/05/30 13:00:59;;;;;;;;;;;;;;;29.14;18.10;99082.38;4841972;29;20038;-87